createdAt,value
2023-05-23T00:02:13.654Z,4.25
2023-05-23T00:04:41.361Z,4.32
2023-05-23T00:07:08.975Z,4.13
2023-05-23T00:09:37.248Z,3.90
2023-05-23T00:12:05.091Z,4.30
2023-05-23T00:14:34.045Z,3.88
2023-05-23T00:17:01.782Z,3.92
2023-05-23T00:19:29.816Z,4.20
2023-05-23T00:21:58.676Z,4.20
2023-05-23T00:24:27.251Z,4.47
2023-05-23T00:26:54.476Z,4.43
2023-05-23T00:29:21.786Z,4.82
2023-05-23T00:31:49.289Z,4.20
2023-05-23T00:34:18.079Z,3.78
2023-05-23T00:36:48.084Z,3.90
2023-05-23T00:39:20.263Z,4.00
2023-05-23T00:41:52.183Z,3.63
2023-05-23T00:44:22.263Z,5.32
2023-05-23T00:46:57.885Z,4.27
2023-05-23T00:49:28.256Z,4.60
2023-05-23T00:51:56.079Z,4.63
2023-05-23T00:54:33.942Z,5.82
2023-05-23T00:57:01.711Z,4.15
2023-05-23T00:59:31.277Z,3.60
2023-05-23T01:02:00.942Z,3.67
2023-05-23T01:04:29.111Z,3.47
2023-05-23T01:06:57.151Z,3.83
2023-05-23T01:09:26.592Z,4.28
2023-05-23T01:12:25.155Z,4.43
2023-05-23T01:15:11.570Z,4.38
2023-05-23T01:17:55.175Z,4.40
2023-05-23T01:20:30.238Z,4.20
2023-05-23T01:23:01.139Z,4.28
2023-05-23T01:25:54.062Z,4.70
2023-05-23T01:28:27.310Z,4.85
2023-05-23T01:30:59.171Z,4.65
2023-05-23T01:33:29.145Z,5.15
2023-05-23T01:36:01.079Z,4.20
2023-05-23T01:38:28.474Z,4.22
2023-05-23T01:40:55.753Z,3.95
2023-05-23T01:43:25.089Z,4.20
2023-05-23T01:45:56.454Z,4.28
2023-05-23T01:48:26.267Z,4.10
2023-05-23T01:50:54.488Z,4.50
2023-05-23T01:53:23.338Z,4.40
2023-05-23T01:55:52.041Z,4.40
2023-05-23T01:58:22.309Z,4.05
2023-05-23T02:00:49.853Z,3.97
2023-05-23T02:03:17.436Z,3.95
2023-05-23T02:05:45.849Z,3.88
2023-05-23T02:08:13.330Z,3.40
2023-05-23T02:10:41.682Z,4.18
2023-05-23T02:13:09.092Z,3.50
2023-05-23T02:15:37.514Z,4.15
2023-05-23T02:18:06.716Z,3.90
2023-05-23T02:20:35.371Z,3.95
2023-05-23T02:25:31.998Z,3.28
2023-05-23T02:27:59.621Z,4.45
2023-05-23T02:30:26.940Z,3.50
2023-05-23T02:32:54.709Z,3.50
2023-05-23T02:35:22.689Z,3.83
2023-05-23T02:37:50.059Z,3.80
2023-05-23T02:40:18.034Z,3.80
2023-05-23T02:42:45.420Z,4.18
2023-05-23T02:45:12.732Z,4.45
2023-05-23T02:47:40.170Z,4.55
2023-05-23T02:50:09.854Z,3.72
2023-05-23T02:52:37.527Z,3.83
2023-05-23T02:55:05.558Z,4.40
2023-05-23T02:57:39.172Z,4.32
2023-05-23T03:00:07.236Z,4.30
2023-05-23T03:02:35.624Z,4.87
2023-05-23T03:05:04.164Z,4.68
2023-05-23T03:07:34.089Z,4.40
2023-05-23T03:10:01.569Z,4.82
2023-05-23T03:12:29.566Z,4.95
2023-05-23T03:14:57.093Z,5.20
2023-05-23T03:17:26.256Z,4.88
2023-05-23T03:19:53.902Z,4.63
2023-05-23T03:22:21.408Z,4.43
2023-05-23T03:24:48.971Z,4.97
2023-05-23T03:27:16.460Z,5.20
2023-05-23T03:29:44.053Z,5.05
2023-05-23T03:32:11.689Z,5.15
2023-05-23T03:34:40.262Z,5.67
2023-05-23T03:37:07.579Z,5.80
2023-05-23T03:39:35.849Z,6.30
2023-05-23T03:42:04.340Z,5.60
2023-05-23T03:44:32.077Z,5.97
2023-05-23T03:46:59.629Z,5.80
2023-05-23T03:49:27.101Z,6.47
2023-05-23T03:51:54.655Z,6.38
2023-05-23T03:54:21.974Z,6.13
2023-05-23T03:56:49.239Z,6.57
2023-05-23T03:59:18.176Z,6.50
2023-05-23T04:01:46.189Z,5.97
2023-05-23T04:04:13.663Z,6.40
2023-05-23T04:06:41.758Z,6.50
2023-05-23T04:09:09.436Z,6.05
2023-05-23T04:11:41.590Z,6.07
2023-05-23T04:14:09.195Z,5.88
2023-05-23T04:16:38.325Z,6.22
2023-05-23T04:19:06.406Z,5.68
2023-05-23T04:21:36.624Z,6.10
2023-05-23T04:24:08.492Z,7.30
2023-05-23T04:26:39.683Z,6.57
2023-05-23T04:29:07.479Z,7.68
2023-05-23T04:31:35.587Z,8.40
2023-05-23T04:34:03.952Z,8.13
2023-05-23T04:36:38.234Z,7.35
2023-05-23T04:39:06.559Z,6.60
2023-05-23T04:41:40.254Z,7.72
2023-05-23T04:44:34.272Z,6.55
2023-05-23T04:47:15.936Z,6.55
2023-05-23T04:49:58.076Z,7.47
2023-05-23T04:52:27.612Z,7.05
2023-05-23T04:57:23.878Z,6.70
2023-05-23T04:59:51.528Z,6.70
2023-05-23T05:02:19.486Z,6.78
2023-05-23T05:04:47.493Z,7.20
2023-05-23T05:07:16.266Z,7.22
2023-05-23T05:09:43.808Z,8.43
2023-05-23T05:12:12.240Z,8.57
2023-05-23T05:14:40.666Z,7.82
2023-05-23T05:17:08.486Z,8.20
2023-05-23T05:19:48.943Z,8.85
2023-05-23T05:22:18.507Z,7.72
2023-05-23T05:24:46.180Z,8.45
2023-05-23T05:27:13.544Z,8.13
2023-05-23T05:29:40.914Z,8.52
2023-05-23T05:32:09.272Z,8.10
2023-05-23T05:34:38.131Z,7.32
2023-05-23T05:39:34.247Z,7.45
2023-05-23T05:42:03.799Z,7.72
2023-05-23T05:44:31.561Z,7.65
2023-05-23T05:46:59.094Z,6.82
2023-05-23T05:49:26.382Z,6.88
2023-05-23T05:51:53.733Z,7.32
2023-05-23T05:54:21.277Z,8.60
2023-05-23T05:56:48.607Z,8.13
2023-05-23T05:59:17.107Z,9.88
2023-05-23T06:01:45.739Z,8.57
2023-05-23T06:04:14.179Z,7.85
2023-05-23T06:06:42.185Z,7.30
2023-05-23T06:09:11.032Z,7.63
2023-05-23T06:11:41.129Z,7.63
2023-05-23T06:14:09.627Z,8.23
2023-05-23T06:16:40.791Z,8.68
2023-05-23T06:19:08.673Z,8.10
2023-05-23T06:21:37.234Z,8.23
2023-05-23T06:24:06.397Z,7.78
2023-05-23T06:26:33.991Z,8.27
2023-05-23T06:29:01.387Z,6.68
2023-05-23T06:31:28.706Z,6.82
2023-05-23T06:33:56.173Z,6.40
2023-05-23T06:36:23.965Z,6.25
2023-05-23T06:38:51.279Z,5.88
2023-05-23T06:41:18.695Z,5.88
2023-05-23T06:43:46.142Z,5.18
2023-05-23T06:48:43.691Z,5.78
2023-05-23T06:51:11.521Z,5.65
2023-05-23T06:53:39.069Z,5.43
2023-05-23T06:56:06.812Z,5.50
2023-05-23T06:58:41.514Z,5.80
2023-05-23T07:01:10.890Z,5.55
2023-05-23T07:03:45.872Z,5.10
2023-05-23T07:06:13.740Z,5.22
2023-05-23T07:08:41.708Z,5.22
2023-05-23T07:11:09.783Z,5.57
2023-05-23T07:13:41.383Z,4.60
2023-05-23T07:16:13.335Z,4.68
2023-05-23T07:18:51.541Z,4.93
2023-05-23T07:21:19.020Z,6.13
2023-05-23T07:23:47.348Z,8.98
2023-05-23T07:26:15.343Z,5.95
2023-05-23T07:28:53.908Z,5.87
2023-05-23T07:31:21.547Z,5.63
2023-05-23T07:33:50.214Z,5.65
2023-05-23T07:36:29.662Z,5.50
2023-05-23T07:38:57.134Z,5.85
2023-05-23T07:41:25.434Z,5.10
2023-05-23T07:43:52.904Z,5.07
2023-05-23T07:46:20.326Z,5.40
2023-05-23T07:48:47.897Z,5.15
2023-05-23T07:51:15.836Z,5.10
2023-05-23T07:53:43.368Z,5.00
2023-05-23T07:58:42.367Z,4.90
2023-05-23T08:01:10.190Z,4.88
2023-05-23T08:04:07.244Z,5.05
2023-05-23T08:06:52.101Z,4.45
2023-05-23T08:09:40.388Z,4.28
2023-05-23T08:12:10.109Z,4.22
2023-05-23T08:17:45.658Z,4.30
2023-05-23T08:20:13.158Z,4.60
2023-05-23T08:22:41.205Z,4.25
2023-05-23T08:25:10.105Z,4.77
2023-05-23T08:27:40.515Z,5.25
2023-05-23T08:30:37.526Z,5.18
2023-05-23T08:33:07.282Z,4.85
2023-05-23T08:35:37.610Z,4.85
2023-05-23T08:38:09.917Z,4.65
2023-05-23T08:40:52.232Z,5.00
2023-05-23T08:43:21.190Z,5.88
2023-05-23T08:45:51.599Z,5.18
2023-05-23T08:48:20.828Z,5.63
2023-05-23T08:50:51.335Z,5.60
2023-05-23T08:53:23.078Z,5.70
2023-05-23T08:56:02.812Z,5.20
2023-05-23T08:58:44.685Z,4.80
2023-05-23T09:01:14.008Z,4.93
2023-05-23T09:03:43.290Z,5.50
2023-05-23T09:06:37.542Z,4.97
2023-05-23T09:09:06.587Z,5.75
2023-05-23T09:11:36.331Z,6.10
2023-05-23T09:14:08.346Z,5.07
2023-05-23T09:16:37.297Z,4.88
2023-05-23T09:19:15.603Z,3.92
2023-05-23T09:21:50.857Z,4.50
2023-05-23T09:24:41.621Z,4.25
2023-05-23T09:27:10.717Z,3.83
2023-05-23T09:29:42.109Z,3.40
2023-05-23T09:32:14.896Z,3.53
2023-05-23T09:35:00.914Z,8.00
2023-05-23T09:37:46.154Z,7.65
2023-05-23T09:40:15.048Z,6.25
2023-05-23T09:42:49.022Z,8.40
2023-05-23T09:45:17.330Z,8.52
2023-05-23T09:47:52.363Z,8.00
2023-05-23T09:50:21.131Z,7.20
2023-05-23T09:52:49.555Z,7.65
2023-05-23T09:55:17.533Z,6.70
2023-05-23T09:57:46.024Z,6.63
2023-05-23T10:03:17.873Z,8.77
2023-05-23T10:05:47.822Z,8.20
2023-05-23T10:08:30.163Z,6.32
2023-05-23T10:10:57.702Z,6.15
2023-05-23T10:13:27.234Z,5.72
2023-05-23T10:16:07.233Z,5.88
2023-05-23T10:18:49.078Z,5.72
2023-05-23T10:21:21.035Z,5.43
2023-05-23T10:23:49.102Z,6.93
2023-05-23T10:26:18.568Z,7.38
2023-05-23T10:28:49.941Z,7.20
2023-05-23T10:31:18.045Z,8.20
2023-05-23T10:33:53.743Z,7.60
2023-05-23T10:36:34.535Z,10.27
2023-05-23T10:39:13.429Z,11.05
2023-05-23T10:41:51.786Z,9.18
2023-05-23T10:44:30.554Z,10.40
2023-05-23T10:47:02.629Z,10.40
2023-05-23T10:49:41.629Z,10.23
2023-05-23T10:52:14.035Z,9.77
2023-05-23T10:54:43.380Z,10.70
2023-05-23T10:57:13.004Z,13.27
2023-05-23T10:59:40.817Z,13.80
2023-05-23T11:02:20.615Z,12.32
2023-05-23T11:05:23.880Z,12.15
2023-05-23T11:08:16.248Z,12.15
2023-05-23T11:11:01.054Z,12.07
2023-05-23T11:13:53.502Z,14.00
2023-05-23T11:16:46.755Z,15.98
2023-05-23T11:19:21.047Z,15.48
2023-05-23T11:22:03.709Z,11.68
2023-05-23T11:25:00.181Z,12.07
2023-05-23T11:27:36.179Z,12.60
2023-05-23T11:30:07.629Z,12.90
2023-05-23T11:32:36.329Z,13.20
2023-05-23T11:35:09.361Z,11.90
2023-05-23T11:37:39.052Z,12.80
2023-05-23T11:40:35.346Z,12.25
2023-05-23T11:43:05.304Z,13.38
2023-05-23T11:45:34.370Z,13.07
2023-05-23T11:48:09.680Z,13.88
2023-05-23T11:50:54.320Z,12.82
2023-05-23T11:53:25.610Z,11.18
2023-05-23T11:55:58.967Z,13.25
2023-05-23T11:58:29.375Z,13.43
2023-05-23T12:01:08.646Z,13.50
2023-05-23T12:03:57.668Z,13.85
2023-05-23T12:06:25.410Z,14.35
2023-05-23T12:08:54.007Z,15.35
2023-05-23T12:11:23.812Z,14.50
2023-05-23T12:13:53.573Z,14.50
2023-05-23T12:18:48.855Z,15.93
2023-05-23T12:21:16.240Z,14.05
2023-05-23T12:23:43.679Z,14.60
2023-05-23T12:26:10.948Z,15.38
2023-05-23T12:28:40.477Z,15.48
2023-05-23T12:31:22.153Z,15.50
2023-05-23T12:33:52.940Z,15.38
2023-05-23T12:36:29.729Z,13.20
2023-05-23T12:39:09.172Z,11.80
2023-05-23T12:41:37.457Z,12.13
2023-05-23T12:44:05.361Z,19.42
2023-05-23T12:46:33.796Z,11.95
2023-05-23T12:49:01.356Z,11.98
2023-05-23T12:51:28.839Z,11.52
2023-05-23T12:53:57.339Z,10.80
2023-05-23T12:56:24.645Z,10.27
2023-05-23T12:58:53.938Z,9.85
2023-05-23T13:01:21.811Z,11.20
2023-05-23T13:03:49.369Z,10.43
2023-05-23T13:06:18.330Z,9.88
2023-05-23T13:08:45.864Z,10.65
2023-05-23T13:11:13.836Z,10.32
2023-05-23T13:13:42.132Z,10.18
2023-05-23T13:16:09.835Z,10.13
2023-05-23T13:18:37.358Z,11.93
2023-05-23T13:21:05.087Z,11.85
2023-05-23T13:23:32.783Z,11.50
2023-05-23T13:26:00.294Z,10.32
2023-05-23T13:28:27.686Z,10.55
2023-05-23T13:30:55.257Z,9.98
2023-05-23T13:33:23.692Z,9.60
2023-05-23T13:35:51.667Z,9.98
2023-05-23T13:38:20.509Z,9.77
2023-05-23T13:40:49.719Z,10.18
2023-05-23T13:43:18.962Z,10.38
2023-05-23T13:45:49.084Z,10.48
2023-05-23T13:48:16.783Z,10.82
2023-05-23T13:50:45.221Z,12.13
2023-05-23T13:53:16.823Z,11.85
2023-05-23T13:55:47.589Z,11.80
2023-05-23T13:58:15.040Z,10.20
2023-05-23T14:00:43.401Z,10.48
2023-05-23T14:03:12.025Z,10.30
2023-05-23T14:05:39.651Z,10.30
2023-05-23T14:08:07.072Z,9.98
2023-05-23T14:10:35.832Z,10.70
2023-05-23T14:13:03.343Z,9.32
2023-05-23T14:15:32.944Z,10.18
2023-05-23T14:18:01.747Z,11.68
2023-05-23T14:20:30.066Z,10.73
2023-05-23T14:22:57.663Z,11.00
2023-05-23T14:25:25.057Z,10.70
2023-05-23T14:27:52.323Z,10.43
2023-05-23T14:30:20.127Z,10.75
2023-05-23T14:32:47.602Z,11.13
2023-05-23T14:35:15.054Z,10.02
2023-05-23T14:37:42.598Z,10.10
2023-05-23T14:40:10.501Z,10.68
2023-05-23T14:42:38.055Z,9.85
2023-05-23T14:45:06.417Z,8.60
2023-05-23T14:47:35.570Z,6.20
2023-05-23T14:50:03.720Z,4.50
2023-05-23T14:52:31.480Z,3.90
2023-05-23T14:54:58.763Z,3.60
2023-05-23T14:57:26.882Z,2.88
2023-05-23T14:59:54.122Z,2.70
2023-05-23T15:02:22.548Z,2.80
2023-05-23T15:04:49.910Z,2.80
2023-05-23T15:07:18.419Z,2.22
2023-05-23T15:09:47.818Z,2.17
2023-05-23T15:12:17.862Z,1.92
2023-05-23T15:14:45.406Z,1.92
2023-05-23T15:17:13.578Z,1.42
2023-05-23T15:19:43.253Z,1.70
2023-05-23T15:22:18.772Z,1.20
2023-05-23T15:25:03.112Z,1.70
2023-05-23T15:27:30.820Z,1.80
2023-05-23T15:29:58.292Z,2.10
2023-05-23T15:32:25.993Z,1.85
2023-05-23T15:34:53.861Z,2.15
2023-05-23T15:37:21.209Z,1.90
2023-05-23T15:39:49.490Z,2.25
2023-05-23T15:42:17.048Z,2.05
2023-05-23T15:44:44.417Z,2.30
2023-05-23T15:47:11.806Z,1.80
2023-05-23T15:49:39.297Z,1.92
2023-05-23T15:52:06.962Z,2.10
2023-05-23T15:54:34.719Z,2.10
2023-05-23T15:57:01.973Z,2.10
2023-05-23T15:59:31.445Z,1.60
2023-05-23T16:04:26.658Z,2.00
2023-05-23T16:06:54.114Z,2.33
2023-05-23T16:09:21.456Z,2.38
2023-05-23T16:11:48.951Z,1.92
2023-05-23T16:14:16.375Z,2.28
2023-05-23T16:16:43.911Z,2.33
2023-05-23T16:19:11.516Z,1.83
2023-05-23T16:21:39.218Z,2.00
2023-05-23T16:24:07.053Z,2.17
2023-05-23T16:26:34.759Z,2.45
2023-05-23T16:29:02.508Z,2.70
2023-05-23T16:31:30.352Z,2.30
2023-05-23T16:33:58.763Z,2.60
2023-05-23T16:36:26.137Z,2.88
2023-05-23T16:38:55.563Z,2.40
2023-05-23T16:41:23.261Z,2.65
2023-05-23T16:43:51.267Z,2.90
2023-05-23T16:46:20.660Z,2.70
2023-05-23T16:48:48.709Z,2.83
2023-05-23T16:51:16.348Z,3.10
2023-05-23T16:53:43.652Z,2.90
2023-05-23T16:56:11.041Z,3.60
2023-05-23T16:58:38.958Z,3.63
2023-05-23T17:01:07.765Z,3.38
2023-05-23T17:03:35.339Z,3.23
2023-05-23T17:06:02.931Z,2.92
2023-05-23T17:08:30.727Z,3.10
2023-05-23T17:10:58.089Z,3.90
2023-05-23T17:13:26.138Z,3.75
2023-05-23T17:15:53.623Z,3.92
2023-05-23T17:18:21.112Z,4.40
2023-05-23T17:20:48.412Z,4.63
2023-05-23T17:23:16.217Z,4.30
2023-05-23T17:25:43.732Z,5.50
2023-05-23T17:28:12.119Z,5.10
2023-05-23T17:30:40.211Z,4.65
2023-05-23T17:33:08.352Z,4.80
2023-05-23T17:35:35.747Z,4.80
2023-05-23T17:38:03.308Z,5.10
2023-05-23T17:40:31.237Z,4.82
2023-05-23T17:42:59.050Z,4.82
2023-05-23T17:45:26.411Z,5.95
2023-05-23T17:47:53.949Z,5.95
2023-05-23T17:50:21.558Z,4.95
2023-05-23T17:52:49.498Z,5.10
2023-05-23T17:55:16.804Z,4.80
2023-05-23T17:57:45.107Z,4.88
2023-05-23T18:00:12.923Z,4.88
2023-05-23T18:02:40.584Z,5.25
2023-05-23T18:05:09.472Z,5.25
2023-05-23T18:07:36.877Z,5.23
2023-05-23T18:10:05.470Z,4.82
2023-05-23T18:12:33.060Z,5.65
2023-05-23T18:15:00.417Z,5.07
2023-05-23T18:17:28.216Z,5.50
2023-05-23T18:19:55.680Z,5.18
2023-05-23T18:22:23.159Z,5.15
2023-05-23T18:24:50.774Z,9.07
2023-05-23T18:27:18.093Z,24.67
2023-05-23T18:29:45.485Z,7.25
2023-05-23T18:32:14.625Z,6.60
2023-05-23T18:34:42.342Z,6.45
2023-05-23T18:37:09.990Z,6.10
2023-05-23T18:39:37.455Z,5.72
2023-05-23T18:42:04.842Z,5.85
2023-05-23T18:44:32.505Z,6.68
2023-05-23T18:46:59.886Z,7.03
2023-05-23T18:49:27.592Z,6.70
2023-05-23T18:51:58.477Z,6.50
2023-05-23T18:54:26.035Z,6.60
2023-05-23T18:56:53.283Z,7.57
2023-05-23T18:59:20.986Z,9.40
2023-05-23T19:01:48.366Z,9.77
2023-05-23T19:04:15.891Z,9.65
2023-05-23T19:06:45.790Z,12.30
2023-05-23T19:09:13.383Z,13.07
2023-05-23T19:11:40.722Z,12.20
2023-05-23T19:14:08.416Z,12.30
2023-05-23T19:16:36.342Z,12.90
2023-05-23T19:19:04.108Z,12.13
2023-05-23T19:21:32.020Z,11.75
2023-05-23T19:23:59.669Z,13.18
2023-05-23T19:26:27.066Z,12.88
2023-05-23T19:28:56.915Z,14.70
2023-05-23T19:31:24.582Z,15.95
2023-05-23T19:33:52.273Z,16.02
2023-05-23T19:36:19.700Z,23.73
2023-05-23T19:38:47.244Z,23.38
2023-05-23T19:41:14.716Z,22.00
2023-05-23T19:43:42.244Z,24.17
2023-05-23T19:46:09.688Z,19.92
2023-05-23T19:48:37.177Z,19.67
2023-05-23T19:51:04.632Z,21.40
2023-05-23T19:53:31.926Z,19.98
2023-05-23T19:56:02.236Z,23.48
2023-05-23T19:58:32.412Z,26.63
2023-05-23T20:00:59.990Z,22.05
2023-05-23T20:03:27.303Z,22.35
2023-05-23T20:05:54.815Z,20.15
2023-05-23T20:08:22.198Z,19.70
2023-05-23T20:10:49.585Z,19.05
2023-05-23T20:13:17.078Z,19.05
2023-05-23T20:15:44.657Z,19.33
2023-05-23T20:18:12.388Z,19.70
2023-05-23T20:20:40.415Z,18.55
2023-05-23T20:23:09.057Z,19.50
2023-05-23T20:25:36.519Z,18.33
2023-05-23T20:28:04.153Z,19.23
2023-05-23T20:30:32.193Z,18.02
2023-05-23T20:32:59.611Z,16.60
2023-05-23T20:35:27.164Z,17.15
2023-05-23T20:37:54.578Z,16.83
2023-05-23T20:40:22.876Z,16.73
2023-05-23T20:42:50.252Z,21.88
2023-05-23T20:45:17.602Z,30.27
2023-05-23T20:47:46.484Z,34.03
2023-05-23T20:50:14.805Z,39.97
2023-05-23T20:52:43.208Z,32.03
2023-05-23T20:55:13.129Z,26.60
2023-05-23T20:57:40.472Z,23.38
2023-05-23T21:00:14.454Z,21.27
2023-05-23T21:02:42.966Z,20.88
2023-05-23T21:05:12.317Z,23.00
2023-05-23T21:07:39.874Z,21.33
2023-05-23T21:10:07.755Z,20.50
2023-05-23T21:12:35.303Z,20.88
2023-05-23T21:15:03.338Z,19.45
2023-05-23T21:17:30.857Z,18.40
2023-05-23T21:19:58.226Z,18.77
2023-05-23T21:22:25.528Z,17.75
2023-05-23T21:24:52.988Z,16.45
2023-05-23T21:27:20.354Z,15.40
2023-05-23T21:29:47.816Z,15.50
2023-05-23T21:32:15.296Z,15.48
2023-05-23T21:34:42.652Z,15.57
2023-05-23T21:37:10.118Z,15.02
2023-05-23T21:39:50.803Z,15.07
2023-05-23T21:42:20.663Z,15.07
2023-05-23T21:44:48.358Z,15.98
2023-05-23T21:47:15.750Z,15.30
2023-05-23T21:49:43.287Z,15.32
2023-05-23T21:52:10.754Z,16.02
2023-05-23T21:54:38.447Z,14.90
2023-05-23T21:57:06.198Z,15.70
2023-05-23T21:59:33.908Z,15.07
2023-05-23T22:02:01.425Z,17.48
2023-05-23T22:04:29.051Z,16.88
2023-05-23T22:06:56.991Z,17.35
2023-05-23T22:09:24.435Z,17.02
2023-05-23T22:11:52.398Z,16.75
2023-05-23T22:14:19.949Z,17.50
2023-05-23T22:16:50.151Z,15.10
2023-05-23T22:19:21.171Z,16.80
2023-05-23T22:21:48.703Z,15.30
2023-05-23T22:24:16.466Z,14.80
2023-05-23T22:26:44.001Z,14.10
2023-05-23T22:29:11.588Z,13.75
2023-05-23T22:31:39.615Z,14.05
2023-05-23T22:34:07.173Z,14.15
2023-05-23T22:36:34.524Z,13.93
2023-05-23T22:39:02.596Z,18.85
2023-05-23T22:41:30.191Z,16.90
2023-05-23T22:43:57.681Z,17.52
2023-05-23T23:07:58.755Z,17.48
2023-05-23T23:10:26.436Z,16.00
2023-05-23T23:12:54.748Z,17.10
2023-05-23T23:15:24.605Z,17.13
2023-05-23T23:17:52.711Z,16.05
2023-05-23T23:20:22.589Z,17.00
2023-05-23T23:22:50.342Z,16.67
2023-05-23T23:25:19.108Z,17.00
2023-05-23T23:27:46.752Z,16.45
2023-05-23T23:30:14.454Z,16.40
2023-05-23T23:32:42.861Z,16.67
2023-05-23T23:35:10.304Z,16.15
2023-05-23T23:37:37.824Z,16.98
2023-05-23T23:40:06.036Z,15.63
2023-05-23T23:42:33.904Z,17.75
2023-05-23T23:45:01.629Z,18.13
2023-05-23T23:47:29.241Z,17.35
2023-05-23T23:49:56.643Z,16.85
2023-05-23T23:52:24.124Z,17.88
2023-05-23T23:54:51.731Z,18.80
2023-05-23T23:57:19.270Z,18.27
2023-05-23T23:59:47.314Z,18.00
